WABB/BIK METAR and TAF weather

Enter ICAO airport designator
Station Type Date Time Source
WABB METAR 2020/01/17 22:30 UTC NOAA

WABB 172230Z 32007KT 9999 SCT018 28/25 Q1010 NOSIG


Station Type Date Time Source
WABB Decoded METAR 2020/01/17 22:30 UTC NOAA

Biak / Mokmer, Indonesia (WABB) 01-11S 136-07E 11M
Jan 17, 2020 - 05:30 PM EST / 2020.01.17 2230 UTC
Wind: from the NW (320 degrees) at 8 MPH (7 KT):0
Visibility: greater than 7 mile(s):0
Sky conditions: partly cloudy
Temperature: 82 F (28 C)
Dew Point: 77 F (25 C)
Relative Humidity: 83%
Pressure (altimeter): 29.83 in. Hg (1010 hPa)
ob: WABB 172230Z 32007KT 9999 SCT018 28/25 Q1010 NOSIG
cycle: 22

Station Type Date Time Source
WABB TAF 2020/01/17 18:07 UTC NOAA

TAF WABB 171700Z 1718/1900 00000KT 9999 SCT018
BECMG 1722/1800 27008KT

Example: see airport list